sensor_id;sensor_type;location;lat;lon;timestamp;temperature;humidity
22337;DHT22;14992;50.844;4.418;2023-06-14T00:01:10;22.70;72.60
22337;DHT22;14992;50.844;4.418;2023-06-14T00:03:42;22.80;72.60
22337;DHT22;14992;50.844;4.418;2023-06-14T00:06:11;22.70;72.60
22337;DHT22;14992;50.844;4.418;2023-06-14T00:08:40;22.70;72.80
22337;DHT22;14992;50.844;4.418;2023-06-14T00:11:09;22.60;72.70
22337;DHT22;14992;50.844;4.418;2023-06-14T00:13:38;22.60;73.40
22337;DHT22;14992;50.844;4.418;2023-06-14T00:16:08;22.50;74.20
22337;DHT22;14992;50.844;4.418;2023-06-14T00:18:37;22.40;74.50
22337;DHT22;14992;50.844;4.418;2023-06-14T00:21:07;22.30;75.00
22337;DHT22;14992;50.844;4.418;2023-06-14T00:23:37;22.30;75.40
22337;DHT22;14992;50.844;4.418;2023-06-14T00:26:06;22.30;75.60
22337;DHT22;14992;50.844;4.418;2023-06-14T00:28:35;22.30;76.00
22337;DHT22;14992;50.844;4.418;2023-06-14T00:31:07;22.40;75.50
22337;DHT22;14992;50.844;4.418;2023-06-14T00:33:35;22.40;75.50
22337;DHT22;14992;50.844;4.418;2023-06-14T00:36:06;22.40;75.60
22337;DHT22;14992;50.844;4.418;2023-06-14T00:38:35;22.40;75.70
22337;DHT22;14992;50.844;4.418;2023-06-14T00:41:04;22.30;76.10
22337;DHT22;14992;50.844;4.418;2023-06-14T00:43:34;22.20;76.70
22337;DHT22;14992;50.844;4.418;2023-06-14T00:46:03;22.20;77.10
22337;DHT22;14992;50.844;4.418;2023-06-14T00:48:33;22.20;77.70
22337;DHT22;14992;50.844;4.418;2023-06-14T00:51:04;22.10;78.40
22337;DHT22;14992;50.844;4.418;2023-06-14T00:56:47;22.10;78.80
22337;DHT22;14992;50.844;4.418;2023-06-14T00:59:16;22.00;79.00
22337;DHT22;14992;50.844;4.418;2023-06-14T01:01:45;22.00;79.00
22337;DHT22;14992;50.844;4.418;2023-06-14T01:04:16;22.00;79.30
22337;DHT22;14992;50.844;4.418;2023-06-14T01:06:54;22.00;80.10
22337;DHT22;14992;50.844;4.418;2023-06-14T01:09:36;21.90;79.50
22337;DHT22;14992;50.844;4.418;2023-06-14T01:12:13;21.90;80.00
22337;DHT22;14992;50.844;4.418;2023-06-14T01:14:44;21.90;80.10
22337;DHT22;14992;50.844;4.418;2023-06-14T01:17:14;21.80;80.70
22337;DHT22;14992;50.844;4.418;2023-06-14T01:19:45;21.60;81.40
22337;DHT22;14992;50.844;4.418;2023-06-14T01:22:14;21.60;82.00
22337;DHT22;14992;50.844;4.418;2023-06-14T01:24:44;21.60;82.10
22337;DHT22;14992;50.844;4.418;2023-06-14T01:27:14;21.60;82.00
22337;DHT22;14992;50.844;4.418;2023-06-14T01:29:43;21.60;82.40
22337;DHT22;14992;50.844;4.418;2023-06-14T01:32:15;21.40;83.40
22337;DHT22;14992;50.844;4.418;2023-06-14T01:34:45;21.30;84.10
22337;DHT22;14992;50.844;4.418;2023-06-14T01:37:14;21.20;84.50
22337;DHT22;14992;50.844;4.418;2023-06-14T01:39:45;21.20;84.60
22337;DHT22;14992;50.844;4.418;2023-06-14T01:42:19;21.20;84.90
22337;DHT22;14992;50.844;4.418;2023-06-14T01:44:49;21.30;84.70
22337;DHT22;14992;50.844;4.418;2023-06-14T01:47:20;21.40;84.70
22337;DHT22;14992;50.844;4.418;2023-06-14T01:49:49;21.30;85.20
22337;DHT22;14992;50.844;4.418;2023-06-14T01:52:19;21.20;86.10
22337;DHT22;14992;50.844;4.418;2023-06-14T01:54:51;21.20;86.20
22337;DHT22;14992;50.844;4.418;2023-06-14T01:57:20;21.20;86.00
22337;DHT22;14992;50.844;4.418;2023-06-14T01:59:49;21.20;86.70
22337;DHT22;14992;50.844;4.418;2023-06-14T02:02:18;21.10;87.20
22337;DHT22;14992;50.844;4.418;2023-06-14T02:04:47;21.10;87.50
22337;DHT22;14992;50.844;4.418;2023-06-14T02:07:16;21.00;88.00
22337;DHT22;14992;50.844;4.418;2023-06-14T02:09:45;21.00;88.00
22337;DHT22;14992;50.844;4.418;2023-06-14T02:12:16;20.90;89.20
22337;DHT22;14992;50.844;4.418;2023-06-14T02:14:45;20.80;89.50
22337;DHT22;14992;50.844;4.418;2023-06-14T02:17:13;20.80;89.70
22337;DHT22;14992;50.844;4.418;2023-06-14T02:19:43;20.80;89.60
22337;DHT22;14992;50.844;4.418;2023-06-14T02:22:12;20.70;90.50
22337;DHT22;14992;50.844;4.418;2023-06-14T02:24:43;20.60;90.40
22337;DHT22;14992;50.844;4.418;2023-06-14T02:27:13;20.60;90.60
22337;DHT22;14992;50.844;4.418;2023-06-14T02:29:45;20.50;90.90
22337;DHT22;14992;50.844;4.418;2023-06-14T02:32:14;20.40;91.10
22337;DHT22;14992;50.844;4.418;2023-06-14T02:34:43;20.40;91.10
22337;DHT22;14992;50.844;4.418;2023-06-14T02:37:14;20.40;91.20
22337;DHT22;14992;50.844;4.418;2023-06-14T02:39:43;20.40;91.20
22337;DHT22;14992;50.844;4.418;2023-06-14T02:42:12;20.40;91.40
22337;DHT22;14992;50.844;4.418;2023-06-14T02:44:42;20.40;91.50
22337;DHT22;14992;50.844;4.418;2023-06-14T02:47:13;20.40;91.50
22337;DHT22;14992;50.844;4.418;2023-06-14T02:49:43;20.40;91.50
22337;DHT22;14992;50.844;4.418;2023-06-14T02:52:15;20.30;91.80
22337;DHT22;14992;50.844;4.418;2023-06-14T02:54:44;20.30;91.90
22337;DHT22;14992;50.844;4.418;2023-06-14T02:57:15;20.40;91.90
22337;DHT22;14992;50.844;4.418;2023-06-14T02:59:44;20.40;91.90
22337;DHT22;14992;50.844;4.418;2023-06-14T03:02:14;20.40;92.00
22337;DHT22;14992;50.844;4.418;2023-06-14T03:04:44;20.30;92.20
22337;DHT22;14992;50.844;4.418;2023-06-14T03:07:17;20.30;92.30
22337;DHT22;14992;50.844;4.418;2023-06-14T03:09:50;20.30;92.60
22337;DHT22;14992;50.844;4.418;2023-06-14T03:12:20;20.20;92.70
22337;DHT22;14992;50.844;4.418;2023-06-14T03:14:49;20.20;92.70
22337;DHT22;14992;50.844;4.418;2023-06-14T03:17:23;20.30;92.70
22337;DHT22;14992;50.844;4.418;2023-06-14T03:19:52;20.20;93.00
22337;DHT22;14992;50.844;4.418;2023-06-14T03:22:21;20.10;93.60
22337;DHT22;14992;50.844;4.418;2023-06-14T03:24:50;20.10;93.50
22337;DHT22;14992;50.844;4.418;2023-06-14T03:27:19;20.10;93.40
22337;DHT22;14992;50.844;4.418;2023-06-14T03:29:48;20.00;93.60
22337;DHT22;14992;50.844;4.418;2023-06-14T03:32:17;20.00;93.80
22337;DHT22;14992;50.844;4.418;2023-06-14T03:34:48;19.90;94.10
22337;DHT22;14992;50.844;4.418;2023-06-14T03:37:22;19.80;94.30
22337;DHT22;14992;50.844;4.418;2023-06-14T03:39:51;19.70;94.60
22337;DHT22;14992;50.844;4.418;2023-06-14T03:42:23;19.70;95.00
22337;DHT22;14992;50.844;4.418;2023-06-14T03:44:51;19.60;95.20
22337;DHT22;14992;50.844;4.418;2023-06-14T03:47:22;19.60;95.50
22337;DHT22;14992;50.844;4.418;2023-06-14T03:49:53;19.60;95.50
22337;DHT22;14992;50.844;4.418;2023-06-14T03:52:22;19.70;95.40
22337;DHT22;14992;50.844;4.418;2023-06-14T03:54:51;19.60;95.50
22337;DHT22;14992;50.844;4.418;2023-06-14T03:57:23;19.70;95.60
22337;DHT22;14992;50.844;4.418;2023-06-14T03:59:54;19.70;95.60
22337;DHT22;14992;50.844;4.418;2023-06-14T04:02:23;19.80;95.60
22337;DHT22;14992;50.844;4.418;2023-06-14T04:04:55;19.90;95.30
22337;DHT22;14992;50.844;4.418;2023-06-14T04:07:24;20.10;95.00
22337;DHT22;14992;50.844;4.418;2023-06-14T04:09:55;20.20;94.90
22337;DHT22;14992;50.844;4.418;2023-06-14T04:12:24;20.30;94.60
22337;DHT22;14992;50.844;4.418;2023-06-14T04:14:53;20.30;94.40
22337;DHT22;14992;50.844;4.418;2023-06-14T04:17:32;20.40;94.50
22337;DHT22;14992;50.844;4.418;2023-06-14T04:20:05;20.40;94.50
22337;DHT22;14992;50.844;4.418;2023-06-14T04:22:39;20.30;94.40
22337;DHT22;14992;50.844;4.418;2023-06-14T04:25:09;20.20;94.70
22337;DHT22;14992;50.844;4.418;2023-06-14T04:27:42;20.20;94.80
22337;DHT22;14992;50.844;4.418;2023-06-14T04:30:12;20.20;94.80
22337;DHT22;14992;50.844;4.418;2023-06-14T04:32:47;20.20;95.00
22337;DHT22;14992;50.844;4.418;2023-06-14T04:35:18;20.20;94.70
22337;DHT22;14992;50.844;4.418;2023-06-14T04:37:48;20.30;94.90
22337;DHT22;14992;50.844;4.418;2023-06-14T04:40:18;20.30;94.70
22337;DHT22;14992;50.844;4.418;2023-06-14T04:42:47;20.40;94.80
22337;DHT22;14992;50.844;4.418;2023-06-14T04:45:19;20.40;94.60
22337;DHT22;14992;50.844;4.418;2023-06-14T04:47:50;20.30;94.40
22337;DHT22;14992;50.844;4.418;2023-06-14T04:50:24;20.30;94.50
22337;DHT22;14992;50.844;4.418;2023-06-14T04:52:53;20.20;94.70
22337;DHT22;14992;50.844;4.418;2023-06-14T04:55:22;20.10;95.10
22337;DHT22;14992;50.844;4.418;2023-06-14T04:57:52;20.10;95.20
22337;DHT22;14992;50.844;4.418;2023-06-14T05:00:21;20.10;95.40
22337;DHT22;14992;50.844;4.418;2023-06-14T05:02:51;20.20;95.20
22337;DHT22;14992;50.844;4.418;2023-06-14T05:05:21;20.20;94.90
22337;DHT22;14992;50.844;4.418;2023-06-14T05:07:52;20.20;95.20
22337;DHT22;14992;50.844;4.418;2023-06-14T05:10:20;20.20;95.20
22337;DHT22;14992;50.844;4.418;2023-06-14T05:12:49;20.20;95.30
22337;DHT22;14992;50.844;4.418;2023-06-14T05:15:20;20.30;95.20
22337;DHT22;14992;50.844;4.418;2023-06-14T05:17:53;20.20;95.10
22337;DHT22;14992;50.844;4.418;2023-06-14T05:20:24;20.20;95.10
22337;DHT22;14992;50.844;4.418;2023-06-14T05:22:55;20.20;95.10
22337;DHT22;14992;50.844;4.418;2023-06-14T05:25:25;20.20;95.10
22337;DHT22;14992;50.844;4.418;2023-06-14T05:27:55;20.20;94.90
22337;DHT22;14992;50.844;4.418;2023-06-14T05:30:24;20.20;94.90
22337;DHT22;14992;50.844;4.418;2023-06-14T05:32:54;20.30;95.10
22337;DHT22;14992;50.844;4.418;2023-06-14T05:35:23;20.40;94.90
22337;DHT22;14992;50.844;4.418;2023-06-14T05:37:55;20.40;94.60
22337;DHT22;14992;50.844;4.418;2023-06-14T05:40:24;20.40;94.70
22337;DHT22;14992;50.844;4.418;2023-06-14T05:42:53;20.50;94.80
22337;DHT22;14992;50.844;4.418;2023-06-14T05:45:22;20.60;94.60
22337;DHT22;14992;50.844;4.418;2023-06-14T05:47:51;20.60;94.50
22337;DHT22;14992;50.844;4.418;2023-06-14T05:50:22;20.80;94.30
22337;DHT22;14992;50.844;4.418;2023-06-14T05:52:51;20.80;93.70
22337;DHT22;14992;50.844;4.418;2023-06-14T05:55:21;20.90;93.90
22337;DHT22;14992;50.844;4.418;2023-06-14T05:57:50;20.90;93.90
22337;DHT22;14992;50.844;4.418;2023-06-14T06:00:20;21.00;93.80
22337;DHT22;14992;50.844;4.418;2023-06-14T06:02:49;21.20;93.50
22337;DHT22;14992;50.844;4.418;2023-06-14T06:05:18;21.40;93.10
22337;DHT22;14992;50.844;4.418;2023-06-14T06:07:47;21.40;92.80
22337;DHT22;14992;50.844;4.418;2023-06-14T06:10:16;21.30;93.20
22337;DHT22;14992;50.844;4.418;2023-06-14T06:12:47;21.40;93.20
22337;DHT22;14992;50.844;4.418;2023-06-14T06:15:16;21.40;93.20
22337;DHT22;14992;50.844;4.418;2023-06-14T06:17:46;21.40;93.50
22337;DHT22;14992;50.844;4.418;2023-06-14T06:20:23;21.50;92.80
22337;DHT22;14992;50.844;4.418;2023-06-14T06:22:57;21.50;93.30
22337;DHT22;14992;50.844;4.418;2023-06-14T06:25:26;21.50;93.30
22337;DHT22;14992;50.844;4.418;2023-06-14T06:27:57;21.60;93.10
22337;DHT22;14992;50.844;4.418;2023-06-14T06:30:25;21.70;92.90
22337;DHT22;14992;50.844;4.418;2023-06-14T06:32:55;21.90;92.50
22337;DHT22;14992;50.844;4.418;2023-06-14T06:35:24;22.00;92.00
22337;DHT22;14992;50.844;4.418;2023-06-14T06:37:53;22.00;92.00
22337;DHT22;14992;50.844;4.418;2023-06-14T06:40:23;22.10;92.00
22337;DHT22;14992;50.844;4.418;2023-06-14T06:42:52;22.10;91.40
22337;DHT22;14992;50.844;4.418;2023-06-14T06:45:22;22.20;91.40
22337;DHT22;14992;50.844;4.418;2023-06-14T06:47:52;22.20;91.10
22337;DHT22;14992;50.844;4.418;2023-06-14T06:50:25;22.30;91.00
22337;DHT22;14992;50.844;4.418;2023-06-14T06:52:55;22.40;89.90
22337;DHT22;14992;50.844;4.418;2023-06-14T06:55:23;22.60;88.50
22337;DHT22;14992;50.844;4.418;2023-06-14T06:57:53;22.70;88.20
22337;DHT22;14992;50.844;4.418;2023-06-14T07:00:23;22.70;88.50
22337;DHT22;14992;50.844;4.418;2023-06-14T07:02:55;22.80;88.10
22337;DHT22;14992;50.844;4.418;2023-06-14T07:05:24;22.90;87.70
22337;DHT22;14992;50.844;4.418;2023-06-14T07:07:53;22.90;87.50
22337;DHT22;14992;50.844;4.418;2023-06-14T07:10:24;23.00;86.50
22337;DHT22;14992;50.844;4.418;2023-06-14T07:12:53;23.00;86.80
22337;DHT22;14992;50.844;4.418;2023-06-14T07:15:24;22.90;87.10
22337;DHT22;14992;50.844;4.418;2023-06-14T07:17:53;23.00;86.70
22337;DHT22;14992;50.844;4.418;2023-06-14T07:20:27;23.10;86.10
22337;DHT22;14992;50.844;4.418;2023-06-14T07:22:56;23.20;86.40
22337;DHT22;14992;50.844;4.418;2023-06-14T07:25:25;23.20;85.40
22337;DHT22;14992;50.844;4.418;2023-06-14T07:27:54;23.30;85.90
22337;DHT22;14992;50.844;4.418;2023-06-14T07:30:25;23.40;84.40
22337;DHT22;14992;50.844;4.418;2023-06-14T07:32:57;23.40;84.40
22337;DHT22;14992;50.844;4.418;2023-06-14T07:35:27;23.50;83.00
22337;DHT22;14992;50.844;4.418;2023-06-14T07:37:56;23.60;82.00
22337;DHT22;14992;50.844;4.418;2023-06-14T07:40:25;23.50;82.70
22337;DHT22;14992;50.844;4.418;2023-06-14T07:42:54;23.60;82.50
22337;DHT22;14992;50.844;4.418;2023-06-14T07:45:24;23.70;81.70
22337;DHT22;14992;50.844;4.418;2023-06-14T07:47:53;23.80;80.60
22337;DHT22;14992;50.844;4.418;2023-06-14T07:50:22;23.90;80.60
22337;DHT22;14992;50.844;4.418;2023-06-14T07:52:52;24.10;80.00
22337;DHT22;14992;50.844;4.418;2023-06-14T07:55:21;24.20;79.00
22337;DHT22;14992;50.844;4.418;2023-06-14T07:57:50;24.20;82.80
22337;DHT22;14992;50.844;4.418;2023-06-14T08:00:19;24.10;84.20
22337;DHT22;14992;50.844;4.418;2023-06-14T08:02:50;24.20;84.30
22337;DHT22;14992;50.844;4.418;2023-06-14T08:05:25;24.20;84.80
22337;DHT22;14992;50.844;4.418;2023-06-14T08:07:55;24.20;84.30
22337;DHT22;14992;50.844;4.418;2023-06-14T08:10:24;24.30;84.80
22337;DHT22;14992;50.844;4.418;2023-06-14T08:12:56;24.40;83.10
22337;DHT22;14992;50.844;4.418;2023-06-14T08:15:24;24.40;80.80
22337;DHT22;14992;50.844;4.418;2023-06-14T08:17:55;24.40;79.80
22337;DHT22;14992;50.844;4.418;2023-06-14T08:20:24;24.50;79.30
22337;DHT22;14992;50.844;4.418;2023-06-14T08:22:53;24.60;81.20
22337;DHT22;14992;50.844;4.418;2023-06-14T08:25:24;24.60;83.90
22337;DHT22;14992;50.844;4.418;2023-06-14T08:27:53;24.80;83.40
22337;DHT22;14992;50.844;4.418;2023-06-14T08:30:22;24.80;81.50
22337;DHT22;14992;50.844;4.418;2023-06-14T08:32:51;24.80;81.10
22337;DHT22;14992;50.844;4.418;2023-06-14T08:35:26;24.60;81.80
22337;DHT22;14992;50.844;4.418;2023-06-14T08:37:55;24.50;82.40
22337;DHT22;14992;50.844;4.418;2023-06-14T08:40:24;24.40;83.10
22337;DHT22;14992;50.844;4.418;2023-06-14T08:42:55;24.50;83.20
22337;DHT22;14992;50.844;4.418;2023-06-14T08:45:24;24.50;83.00
22337;DHT22;14992;50.844;4.418;2023-06-14T08:47:56;24.30;82.30
22337;DHT22;14992;50.844;4.418;2023-06-14T08:50:30;24.40;81.30
22337;DHT22;14992;50.844;4.418;2023-06-14T08:53:03;24.50;81.70
22337;DHT22;14992;50.844;4.418;2023-06-14T08:55:32;24.40;80.70
22337;DHT22;14992;50.844;4.418;2023-06-14T08:58:04;24.60;81.70
22337;DHT22;14992;50.844;4.418;2023-06-14T09:00:33;24.60;80.90
22337;DHT22;14992;50.844;4.418;2023-06-14T09:03:02;24.60;79.90
22337;DHT22;14992;50.844;4.418;2023-06-14T09:05:42;24.50;80.60
22337;DHT22;14992;50.844;4.418;2023-06-14T09:08:16;24.60;81.30
22337;DHT22;14992;50.844;4.418;2023-06-14T09:10:46;24.60;82.10
22337;DHT22;14992;50.844;4.418;2023-06-14T09:13:16;24.80;81.70
22337;DHT22;14992;50.844;4.418;2023-06-14T09:15:45;24.90;81.90
22337;DHT22;14992;50.844;4.418;2023-06-14T09:18:14;25.10;80.10
22337;DHT22;14992;50.844;4.418;2023-06-14T09:20:46;25.30;77.50
22337;DHT22;14992;50.844;4.418;2023-06-14T09:23:20;25.40;75.90
22337;DHT22;14992;50.844;4.418;2023-06-14T09:25:50;25.10;73.60
22337;DHT22;14992;50.844;4.418;2023-06-14T09:28:19;25.10;76.20
22337;DHT22;14992;50.844;4.418;2023-06-14T09:30:50;25.00;75.30
22337;DHT22;14992;50.844;4.418;2023-06-14T09:33:19;25.00;77.10
22337;DHT22;14992;50.844;4.418;2023-06-14T09:35:53;25.10;74.40
22337;DHT22;14992;50.844;4.418;2023-06-14T09:38:24;25.10;75.30
22337;DHT22;14992;50.844;4.418;2023-06-14T09:40:59;25.10;73.80
22337;DHT22;14992;50.844;4.418;2023-06-14T09:43:28;25.30;75.20
22337;DHT22;14992;50.844;4.418;2023-06-14T09:45:57;25.30;74.80
22337;DHT22;14992;50.844;4.418;2023-06-14T09:48:26;25.60;72.20
22337;DHT22;14992;50.844;4.418;2023-06-14T09:50:58;25.70;69.80
22337;DHT22;14992;50.844;4.418;2023-06-14T09:53:30;25.90;68.80
22337;DHT22;14992;50.844;4.418;2023-06-14T09:56:00;25.80;69.30
22337;DHT22;14992;50.844;4.418;2023-06-14T09:58:29;25.50;71.30
22337;DHT22;14992;50.844;4.418;2023-06-14T10:00:59;25.40;68.90
22337;DHT22;14992;50.844;4.418;2023-06-14T10:03:29;25.40;67.60
22337;DHT22;14992;50.844;4.418;2023-06-14T10:06:21;25.50;66.50
22337;DHT22;14992;50.844;4.418;2023-06-14T10:08:52;25.70;66.60
22337;DHT22;14992;50.844;4.418;2023-06-14T10:11:23;25.70;64.80
22337;DHT22;14992;50.844;4.418;2023-06-14T10:13:52;25.70;66.40
22337;DHT22;14992;50.844;4.418;2023-06-14T10:16:27;25.80;67.60
22337;DHT22;14992;50.844;4.418;2023-06-14T10:19:04;26.00;65.30
22337;DHT22;14992;50.844;4.418;2023-06-14T10:21:41;26.00;66.10
22337;DHT22;14992;50.844;4.418;2023-06-14T10:24:14;26.10;66.30
22337;DHT22;14992;50.844;4.418;2023-06-14T10:26:51;26.20;65.90
22337;DHT22;14992;50.844;4.418;2023-06-14T10:29:22;26.20;66.00
22337;DHT22;14992;50.844;4.418;2023-06-14T10:31:56;26.30;65.40
22337;DHT22;14992;50.844;4.418;2023-06-14T10:34:27;26.30;64.80
22337;DHT22;14992;50.844;4.418;2023-06-14T10:37:12;26.30;64.40
22337;DHT22;14992;50.844;4.418;2023-06-14T10:39:42;26.10;65.90
22337;DHT22;14992;50.844;4.418;2023-06-14T10:42:12;26.30;65.10
22337;DHT22;14992;50.844;4.418;2023-06-14T10:44:42;26.40;63.20
22337;DHT22;14992;50.844;4.418;2023-06-14T10:47:28;26.40;62.60
22337;DHT22;14992;50.844;4.418;2023-06-14T10:50:04;26.50;61.40
22337;DHT22;14992;50.844;4.418;2023-06-14T10:52:39;26.60;61.40
22337;DHT22;14992;50.844;4.418;2023-06-14T10:55:13;26.60;60.00
22337;DHT22;14992;50.844;4.418;2023-06-14T10:57:44;26.60;59.60
22337;DHT22;14992;50.844;4.418;2023-06-14T11:00:20;26.50;60.10
22337;DHT22;14992;50.844;4.418;2023-06-14T11:03:11;26.50;59.80
22337;DHT22;14992;50.844;4.418;2023-06-14T11:05:50;26.60;58.80
22337;DHT22;14992;50.844;4.418;2023-06-14T11:09:02;26.60;58.20
22337;DHT22;14992;50.844;4.418;2023-06-14T11:11:36;26.10;58.40
22337;DHT22;14992;50.844;4.418;2023-06-14T11:14:06;26.10;58.70
22337;DHT22;14992;50.844;4.418;2023-06-14T11:16:35;26.20;58.40
22337;DHT22;14992;50.844;4.418;2023-06-14T11:19:05;26.30;58.40
22337;DHT22;14992;50.844;4.418;2023-06-14T11:21:40;26.50;58.30
22337;DHT22;14992;50.844;4.418;2023-06-14T11:24:11;26.70;58.30
22337;DHT22;14992;50.844;4.418;2023-06-14T11:26:40;26.80;56.50
22337;DHT22;14992;50.844;4.418;2023-06-14T11:29:09;26.80;56.90
22337;DHT22;14992;50.844;4.418;2023-06-14T11:31:43;26.80;57.00
22337;DHT22;14992;50.844;4.418;2023-06-14T11:34:13;26.80;56.70
22337;DHT22;14992;50.844;4.418;2023-06-14T11:36:43;26.70;57.00
22337;DHT22;14992;50.844;4.418;2023-06-14T11:39:14;26.70;57.90
22337;DHT22;14992;50.844;4.418;2023-06-14T11:41:45;26.90;56.50
22337;DHT22;14992;50.844;4.418;2023-06-14T11:44:14;27.00;56.50
22337;DHT22;14992;50.844;4.418;2023-06-14T11:46:43;26.90;55.80
22337;DHT22;14992;50.844;4.418;2023-06-14T11:49:13;27.00;55.70
22337;DHT22;14992;50.844;4.418;2023-06-14T11:51:43;27.20;55.10
22337;DHT22;14992;50.844;4.418;2023-06-14T11:54:13;27.10;54.60
22337;DHT22;14992;50.844;4.418;2023-06-14T11:56:43;27.10;55.80
22337;DHT22;14992;50.844;4.418;2023-06-14T11:59:13;26.80;55.70
22337;DHT22;14992;50.844;4.418;2023-06-14T12:01:43;26.80;56.10
22337;DHT22;14992;50.844;4.418;2023-06-14T12:04:12;26.80;55.30
22337;DHT22;14992;50.844;4.418;2023-06-14T12:06:41;27.00;55.30
22337;DHT22;14992;50.844;4.418;2023-06-14T12:09:10;27.10;55.60
22337;DHT22;14992;50.844;4.418;2023-06-14T12:11:46;27.10;55.50
22337;DHT22;14992;50.844;4.418;2023-06-14T12:14:15;27.00;55.90
22337;DHT22;14992;50.844;4.418;2023-06-14T12:16:44;27.00;55.30
22337;DHT22;14992;50.844;4.418;2023-06-14T12:19:15;27.00;55.00
22337;DHT22;14992;50.844;4.418;2023-06-14T12:21:46;27.00;55.10
22337;DHT22;14992;50.844;4.418;2023-06-14T12:24:16;26.90;55.00
22337;DHT22;14992;50.844;4.418;2023-06-14T12:26:47;27.00;54.80
22337;DHT22;14992;50.844;4.418;2023-06-14T12:29:16;27.10;54.70
22337;DHT22;14992;50.844;4.418;2023-06-14T12:31:47;27.20;53.90
22337;DHT22;14992;50.844;4.418;2023-06-14T12:34:16;27.30;53.80
22337;DHT22;14992;50.844;4.418;2023-06-14T12:36:45;27.10;54.40
22337;DHT22;14992;50.844;4.418;2023-06-14T12:39:14;27.10;53.70
22337;DHT22;14992;50.844;4.418;2023-06-14T12:41:43;27.10;53.20
22337;DHT22;14992;50.844;4.418;2023-06-14T12:44:14;27.10;53.80
22337;DHT22;14992;50.844;4.418;2023-06-14T12:46:43;27.00;53.80
22337;DHT22;14992;50.844;4.418;2023-06-14T12:49:13;26.80;53.60
22337;DHT22;14992;50.844;4.418;2023-06-14T12:51:43;27.00;54.10
22337;DHT22;14992;50.844;4.418;2023-06-14T12:54:13;27.00;54.00
22337;DHT22;14992;50.844;4.418;2023-06-14T12:56:52;27.00;54.10
22337;DHT22;14992;50.844;4.418;2023-06-14T12:59:23;27.20;53.30
22337;DHT22;14992;50.844;4.418;2023-06-14T13:01:52;27.20;52.80
22337;DHT22;14992;50.844;4.418;2023-06-14T13:04:22;27.20;53.20
22337;DHT22;14992;50.844;4.418;2023-06-14T13:06:51;27.40;53.20
22337;DHT22;14992;50.844;4.418;2023-06-14T13:09:19;27.50;52.30
22337;DHT22;14992;50.844;4.418;2023-06-14T13:11:48;27.50;52.40
22337;DHT22;14992;50.844;4.418;2023-06-14T13:14:20;27.50;53.00
22337;DHT22;14992;50.844;4.418;2023-06-14T13:16:54;27.50;52.70
22337;DHT22;14992;50.844;4.418;2023-06-14T13:19:23;27.50;52.00
22337;DHT22;14992;50.844;4.418;2023-06-14T13:21:52;27.60;52.10
22337;DHT22;14992;50.844;4.418;2023-06-14T13:24:21;27.60;53.00
22337;DHT22;14992;50.844;4.418;2023-06-14T13:26:50;27.60;51.80
22337;DHT22;14992;50.844;4.418;2023-06-14T13:29:19;27.50;52.10
22337;DHT22;14992;50.844;4.418;2023-06-14T13:31:48;27.50;52.50
22337;DHT22;14992;50.844;4.418;2023-06-14T13:34:22;27.50;52.50
22337;DHT22;14992;50.844;4.418;2023-06-14T13:36:51;27.40;52.50
22337;DHT22;14992;50.844;4.418;2023-06-14T13:39:21;27.50;52.00
22337;DHT22;14992;50.844;4.418;2023-06-14T13:41:50;27.50;51.50
22337;DHT22;14992;50.844;4.418;2023-06-14T13:44:19;27.70;50.60
22337;DHT22;14992;50.844;4.418;2023-06-14T13:46:50;27.80;50.20
22337;DHT22;14992;50.844;4.418;2023-06-14T13:49:21;27.80;49.90
22337;DHT22;14992;50.844;4.418;2023-06-14T13:51:49;28.00;49.30
22337;DHT22;14992;50.844;4.418;2023-06-14T13:54:20;28.00;49.40
22337;DHT22;14992;50.844;4.418;2023-06-14T13:56:49;28.00;49.10
22337;DHT22;14992;50.844;4.418;2023-06-14T13:59:18;28.10;49.10
22337;DHT22;14992;50.844;4.418;2023-06-14T14:01:47;28.00;48.90
22337;DHT22;14992;50.844;4.418;2023-06-14T14:04:17;27.80;49.20
22337;DHT22;14992;50.844;4.418;2023-06-14T14:06:48;27.90;48.70
22337;DHT22;14992;50.844;4.418;2023-06-14T14:09:17;27.90;48.70
22337;DHT22;14992;50.844;4.418;2023-06-14T14:11:47;28.10;48.40
22337;DHT22;14992;50.844;4.418;2023-06-14T14:14:18;28.20;48.00
22337;DHT22;14992;50.844;4.418;2023-06-14T14:16:47;28.00;47.80
22337;DHT22;14992;50.844;4.418;2023-06-14T14:19:18;28.10;47.50
22337;DHT22;14992;50.844;4.418;2023-06-14T14:21:53;28.20;47.20
22337;DHT22;14992;50.844;4.418;2023-06-14T14:24:22;28.20;47.70
22337;DHT22;14992;50.844;4.418;2023-06-14T14:26:51;28.20;47.10
22337;DHT22;14992;50.844;4.418;2023-06-14T14:29:21;28.10;47.40
22337;DHT22;14992;50.844;4.418;2023-06-14T14:31:54;27.80;47.00
22337;DHT22;14992;50.844;4.418;2023-06-14T14:34:26;27.80;47.10
22337;DHT22;14992;50.844;4.418;2023-06-14T14:36:56;28.00;47.40
22337;DHT22;14992;50.844;4.418;2023-06-14T14:39:25;28.10;47.40
22337;DHT22;14992;50.844;4.418;2023-06-14T14:41:54;28.10;47.40
22337;DHT22;14992;50.844;4.418;2023-06-14T14:44:23;28.20;47.20
22337;DHT22;14992;50.844;4.418;2023-06-14T14:46:52;28.30;46.70
22337;DHT22;14992;50.844;4.418;2023-06-14T14:49:21;28.20;47.10
22337;DHT22;14992;50.844;4.418;2023-06-14T14:51:50;28.20;47.40
22337;DHT22;14992;50.844;4.418;2023-06-14T14:54:23;28.30;46.50
22337;DHT22;14992;50.844;4.418;2023-06-14T14:56:53;28.10;46.10
22337;DHT22;14992;50.844;4.418;2023-06-14T14:59:22;28.10;46.20
22337;DHT22;14992;50.844;4.418;2023-06-14T15:01:51;28.20;46.20
22337;DHT22;14992;50.844;4.418;2023-06-14T15:04:22;28.20;45.90
22337;DHT22;14992;50.844;4.418;2023-06-14T15:06:52;28.00;46.50
22337;DHT22;14992;50.844;4.418;2023-06-14T15:09:25;28.00;45.90
22337;DHT22;14992;50.844;4.418;2023-06-14T15:11:54;28.10;46.40
22337;DHT22;14992;50.844;4.418;2023-06-14T15:14:23;28.10;47.10
22337;DHT22;14992;50.844;4.418;2023-06-14T15:16:53;28.10;47.10
22337;DHT22;14992;50.844;4.418;2023-06-14T15:19:22;28.20;47.00
22337;DHT22;14992;50.844;4.418;2023-06-14T15:21:51;28.10;47.00
22337;DHT22;14992;50.844;4.418;2023-06-14T15:24:20;28.20;46.60
22337;DHT22;14992;50.844;4.418;2023-06-14T15:27:11;28.30;46.50
22337;DHT22;14992;50.844;4.418;2023-06-14T15:29:41;28.30;47.10
22337;DHT22;14992;50.844;4.418;2023-06-14T15:32:10;28.30;47.40
22337;DHT22;14992;50.844;4.418;2023-06-14T15:34:40;28.30;47.20
22337;DHT22;14992;50.844;4.418;2023-06-14T15:37:09;28.30;47.20
22337;DHT22;14992;50.844;4.418;2023-06-14T15:39:38;28.40;47.10
22337;DHT22;14992;50.844;4.418;2023-06-14T15:42:07;28.50;47.00
22337;DHT22;14992;50.844;4.418;2023-06-14T15:44:38;28.70;46.30
22337;DHT22;14992;50.844;4.418;2023-06-14T15:47:08;28.70;46.20
22337;DHT22;14992;50.844;4.418;2023-06-14T15:49:37;28.60;46.10
22337;DHT22;14992;50.844;4.418;2023-06-14T15:52:07;28.50;46.70
22337;DHT22;14992;50.844;4.418;2023-06-14T15:54:36;28.60;46.70